»·PEaware :: N355RZ KSTS-KSQL

N355RZ :: KSTS-KSQL

FLIGHT INFORMATION

Flight Status: Arrived
Operator: Privately registered:
United States
More flights under this callsign
Pilot: Tom F. (23298)
Aircraft: MOONEY M-20 201 202 205 220 ATS MSE
(M20P)
More flights by this aircraft type
Origin: KSTS Sonoma Co
United States
Destination: KSQL San Carlos
United States
More flights between these airports :: More routes between these airports
Route: FREES9 PYE PYE PYE3
File this flight plan on PilotEdge
Remarks:
Altitude:
(Current/Filed)
7,000ft
Speed:
(Current/Filed)
150kts
Departed: 09-Mar-19 01:12 PM
Arrived: 09-Mar-19 02:02 PM
Distance/Time
Traveled:
66nm/0:50
Distance/Time
To Go:
Arrived

Flight Plot

Page will automatically refresh every two minutes.

Flight plan parsing failed; only flown route is shown


Map Options




Map Legend


Flown Route
Filed Route
Departure Airport
Arrival Airport
Navaid (VOR, NDB)
Fix

Horizontal Profiles

Position Reports

Time Latitude Longitude Heading Altitude Ground
Speed
09-Mar-19 12:58 38.511934 -122.807508 0 110ft 0kts
09-Mar-19 12:59 38.511934 -122.807508 0 110ft 0kts
09-Mar-19 13:00 38.511934 -122.807508 0 110ft 0kts
09-Mar-19 13:01 38.511934 -122.807508 0 110ft 0kts
09-Mar-19 13:02 38.511949 -122.807508 359 110ft 0kts
09-Mar-19 13:03 38.513121 -122.809502 267 107ft 7kts
09-Mar-19 13:04 38.516924 -122.811952 330 100ft 0kts
09-Mar-19 13:05 38.516924 -122.811952 330 100ft 0kts
09-Mar-19 13:06 38.516924 -122.811952 330 100ft 0kts
09-Mar-19 13:07 38.516924 -122.811952 330 100ft 0kts
09-Mar-19 13:08 38.516924 -122.811952 330 100ft 0kts
09-Mar-19 13:09 38.516924 -122.811952 330 100ft 0kts
09-Mar-19 13:10 38.516936 -122.811960 331 100ft 0kts
09-Mar-19 13:11 38.515505 -122.812715 157 106ft 55kts
09-Mar-19 13:12 38.490435 -122.806610 224 882ft 116kts
09-Mar-19 13:13 38.494936 -122.853330 240 1710ft 124kts
09-Mar-19 13:14 38.459664 -122.872915 204 1245ft 175kts
09-Mar-19 13:15 38.455509 -122.920331 278 2306ft 145kts
09-Mar-19 13:16 38.431763 -122.935018 173 3126ft 119kts
09-Mar-19 13:17 38.399259 -122.932702 172 3900ft 116kts
09-Mar-19 13:18 38.368354 -122.922775 167 4701ft 114kts
09-Mar-19 13:19 38.338940 -122.915610 176 5550ft 105kts
09-Mar-19 13:20 38.310552 -122.909792 174 6330ft 102kts
09-Mar-19 13:21 38.282069 -122.904828 177 6964ft 115kts
09-Mar-19 13:23 38.245170 -122.898324 176 6964ft 145kts
09-Mar-19 13:24 38.204662 -122.890811 176 6962ft 150kts
09-Mar-19 13:25 38.163511 -122.883213 176 6961ft 150kts
09-Mar-19 13:26 38.122774 -122.874858 175 6961ft 151kts
09-Mar-19 13:27 38.081617 -122.866993 173 6958ft 144kts
09-Mar-19 13:28 38.042791 -122.851060 167 6961ft 149kts
09-Mar-19 13:29 38.003672 -122.834076 167 6960ft 150kts
09-Mar-19 13:30 37.963939 -122.816819 167 6961ft 153kts
09-Mar-19 13:31 37.923463 -122.799510 170 6957ft 152kts
09-Mar-19 13:32 37.884341 -122.783734 164 6977ft 152kts
09-Mar-19 13:33 37.844205 -122.764623 167 6990ft 155kts
09-Mar-19 13:34 37.803457 -122.746925 167 7003ft 155kts
09-Mar-19 13:35 37.768766 -122.714657 143 7016ft 156kts
09-Mar-19 13:36 37.737617 -122.677457 150 7024ft 152kts
09-Mar-19 13:37 37.706172 -122.641653 148 7045ft 154kts
09-Mar-19 13:38 37.676121 -122.605462 143 7030ft 161kts
09-Mar-19 13:39 37.644129 -122.568247 145 7002ft 159kts
09-Mar-19 13:39 37.618471 -122.540024 147 7036ft 156kts
09-Mar-19 13:40 37.588473 -122.505708 148 7013ft 155kts
09-Mar-19 13:42 37.554011 -122.465652 148 6922ft 159kts
09-Mar-19 13:43 37.527557 -122.435861 142 6477ft 159kts
09-Mar-19 13:43 37.506759 -122.412204 147 6124ft 152kts
09-Mar-19 13:44 37.481588 -122.384055 150 5631ft 151kts
09-Mar-19 13:46 37.450793 -122.348523 144 5110ft 151kts
09-Mar-19 13:46 37.428660 -122.323458 153 5097ft 128kts
09-Mar-19 13:47 37.393928 -122.281862 142 5076ft 128kts
09-Mar-19 13:48 37.366367 -122.240903 140 5082ft 129kts
09-Mar-19 13:49 37.342902 -122.206483 140 5081ft 130kts
09-Mar-19 13:50 37.319353 -122.171999 139 5078ft 131kts
09-Mar-19 13:51 37.310335 -122.129352 54 4972ft 163kts
09-Mar-19 13:52 37.344934 -122.090449 46 4371ft 159kts
09-Mar-19 13:53 37.381417 -122.074651 327 3820ft 141kts
09-Mar-19 13:54 37.407671 -122.107254 308 3001ft 131kts
09-Mar-19 13:55 37.431942 -122.140458 308 2253ft 127kts
09-Mar-19 13:56 37.454915 -122.171947 310 1666ft 125kts
09-Mar-19 13:57 37.478381 -122.204070 311 950ft 126kts
09-Mar-19 13:58 37.502582 -122.230189 333 835ft 103kts
09-Mar-19 13:59 37.526309 -122.249248 323 992ft 99kts
09-Mar-19 14:00 37.521472 -122.260074 144 524ft 67kts
09-Mar-19 14:01 37.511339 -122.249032 139 5ft 21kts
09-Mar-19 14:02 37.510479 -122.249197 124 5ft 0kts
09-Mar-19 14:03 37.510479 -122.249197 124 5ft 0kts
09-Mar-19 14:04 37.510479 -122.249197 124 5ft 0kts
09-Mar-19 14:05 37.510479 -122.249197 124 5ft 0kts
09-Mar-19 14:06 37.510479 -122.249197 124 5ft 0kts
09-Mar-19 14:07 37.510479 -122.249197 124 5ft 0kts
09-Mar-19 14:08 37.510479 -122.249197 124 5ft 0kts
09-Mar-19 14:09 37.510479 -122.249197 124 5ft 0kts
09-Mar-19 14:10 37.510479 -122.249197 124 5ft 0kts
09-Mar-19 14:11 37.510479 -122.249197 124 5ft 0kts
09-Mar-19 14:12 37.510479 -122.249197 124 5ft 0kts
09-Mar-19 14:13 37.510479 -122.249197 124 5ft 0kts
09-Mar-19 14:14 37.510479 -122.249197 124 5ft 0kts
09-Mar-19 14:15 37.510479 -122.249197 124 5ft 0kts

Navigation Log

Ident Type
Flight plan parsing failed, navigation log unavailable